Terminal Aerodrome Forecast
Issued by NWS

Home | Current Version | Previous Version | Text Only | Print | Product List | Glossary On
Versions: 1 2 3 4 5 6 7 8 9 10 11 12 13 14 15 16 17 18 19
000
FTUS46 KLOX 272336
TAFLGB
TAF
KLGB 272336Z 2800/2824 30008KT P6SM SKC
     FM280500 VRB03KT P6SM SKC
     FM280700 VRB03KT P6SM OVC012
     FM281730 VRB03KT P6SM SCT015
     FM282000 19007KT P6SM SKC
     FM282300 28010KT P6SM SKC=

USA.gov is the U.S. government's official web portal to all federal, state and local government web resources and services.